Time;durP1;ratioP1;P1;durP2;ratioP2;P2;SDS_P1;SDS_P2;PMS_P1;PMS_P2;Temp;Humidity;BMP_temperature;BMP_pressure;BME280_temperature;BME280_humidity;BME280_pressure;Samples;Min_cycle;Max_cycle;Signal;HPM_P1;HPM_P2
2024/04/01 00:00:31;;;;;;;7.57;4.03;;;11.20;99.90;;;;;;5004333;28;20030;-86
2024/04/01 00:02:57;;;;;;;7.03;4.10;;;11.10;99.90;;;;;;4998828;28;20032;-85
2024/04/01 00:05:22;;;;;;;6.28;3.58;;;11.20;99.90;;;;;;5005849;28;20490;-86
2024/04/01 00:07:51;;;;;;;4.90;3.80;;;11.20;99.90;;;;;;5011139;28;20076;-86
2024/04/01 00:10:19;;;;;;;5.72;4.10;;;11.20;99.90;;;;;;5010826;28;20052;-86
2024/04/01 00:12:45;;;;;;;5.13;3.60;;;11.10;99.90;;;;;;5010920;28;20053;-86
2024/04/01 00:15:11;;;;;;;8.20;3.78;;;11.80;99.90;;;;;;5011936;28;20053;-86
2024/04/01 00:17:36;;;;;;;9.25;3.97;;;12.10;99.90;;;;;;5012409;28;20129;-86
2024/04/01 00:20:02;;;;;;;7.53;3.92;;;11.10;99.90;;;;;;5010971;28;20030;-87
2024/04/01 00:22:28;;;;;;;7.32;4.22;;;11.10;99.90;;;;;;4993680;28;20089;-86
2024/04/01 00:24:54;;;;;;;6.38;4.00;;;11.10;99.90;;;;;;5004696;28;20030;-85
2024/04/01 00:27:19;;;;;;;8.15;5.03;;;11.10;99.90;;;;;;5006977;28;20425;-87
2024/04/01 00:29:45;;;;;;;9.32;4.10;;;11.10;99.90;;;;;;5010462;28;20017;-85
2024/04/01 00:32:10;;;;;;;7.35;4.13;;;11.00;99.90;;;;;;5014008;28;20053;-86
2024/04/01 00:34:36;;;;;;;7.85;4.20;;;11.00;99.90;;;;;;5010406;28;20022;-86
2024/04/01 00:37:02;;;;;;;9.90;4.30;;;12.10;99.90;;;;;;5009539;28;20033;-85
2024/04/01 00:39:27;;;;;;;5.03;3.85;;;10.90;99.90;;;;;;5010017;28;20145;-86
2024/04/01 00:41:53;;;;;;;8.70;4.28;;;10.90;99.90;;;;;;5009727;28;20022;-86
2024/04/01 00:44:18;;;;;;;5.00;3.90;;;10.90;99.90;;;;;;5008932;28;20064;-85
2024/04/01 00:46:44;;;;;;;8.93;4.32;;;10.60;99.90;;;;;;4995783;28;20034;-86
2024/04/01 00:49:10;;;;;;;6.43;3.83;;;10.90;99.90;;;;;;5007444;28;20038;-86
2024/04/01 00:51:38;;;;;;;6.60;3.75;;;11.40;99.90;;;;;;5008675;28;20486;-86
2024/04/01 00:54:05;;;;;;;9.90;4.50;;;11.10;99.90;;;;;;5008982;28;20061;-87
2024/04/01 00:56:32;;;;;;;7.60;4.05;;;10.80;99.90;;;;;;5009414;28;20516;-87
2024/04/01 00:59:00;;;;;;;10.50;3.83;;;10.80;99.90;;;;;;5010478;28;20458;-87
2024/04/01 01:01:27;;;;;;;6.60;4.40;;;9.90;99.90;;;;;;5011264;28;20655;-87
2024/04/01 01:03:53;;;;;;;5.75;3.95;;;10.80;99.90;;;;;;5009836;28;20084;-86
2024/04/01 01:06:19;;;;;;;5.43;3.72;;;10.70;99.90;;;;;;5007600;28;20026;-87
2024/04/01 01:08:45;;;;;;;7.85;4.30;;;10.80;99.90;;;;;;5011038;28;20049;-87
2024/04/01 01:11:12;;;;;;;5.07;3.38;;;10.70;99.90;;;;;;5009712;28;20026;-87
2024/04/01 01:13:46;;;;;;;4.32;3.90;;;10.80;99.90;;;;;;5012167;28;20034;-86
2024/04/01 01:16:12;;;;;;;6.65;3.85;;;11.80;99.90;;;;;;5010345;28;20501;-86
2024/04/01 01:18:50;;;;;;;6.68;4.22;;;12.10;99.90;;;;;;5011678;28;20078;-86
2024/04/01 01:21:16;;;;;;;5.93;4.07;;;10.70;99.90;;;;;;5010670;28;20026;-87
2024/04/01 01:23:41;;;;;;;6.65;4.00;;;11.00;99.90;;;;;;5006852;28;20053;-85
2024/04/01 01:26:07;;;;;;;7.10;4.22;;;10.80;99.90;;;;;;5006089;28;20041;-86
2024/04/01 01:28:34;;;;;;;6.78;4.47;;;10.80;99.90;;;;;;5010648;28;20030;-86
2024/04/01 01:31:00;;;;;;;6.60;4.03;;;10.70;99.90;;;;;;5007703;28;20029;-85
2024/04/01 01:33:26;;;;;;;7.47;4.78;;;10.80;99.90;;;;;;5008282;28;20117;-85
2024/04/01 01:35:51;;;;;;;8.73;3.70;;;11.00;99.90;;;;;;5008599;28;20037;-85
2024/04/01 01:38:18;;;;;;;6.50;4.03;;;10.70;99.90;;;;;;5007981;28;20033;-85
2024/04/01 01:40:52;;;;;;;8.98;4.10;;;11.80;99.90;;;;;;5006713;28;20050;-85
2024/04/01 01:43:18;;;;;;;8.45;3.80;;;12.40;99.90;;;;;;5008768;28;20030;-86
2024/04/01 01:45:44;;;;;;;6.63;3.60;;;10.80;99.90;;;;;;5009782;28;20130;-85
2024/04/01 01:48:09;;;;;;;5.05;4.00;;;10.30;99.90;;;;;;5002422;28;20038;-85
2024/04/01 01:50:35;;;;;;;7.18;3.67;;;9.80;99.90;;;;;;5008260;28;20033;-85
2024/04/01 01:53:00;;;;;;;5.30;4.05;;;10.70;99.90;;;;;;5009529;28;20351;-85
2024/04/01 01:55:26;;;;;;;4.80;3.67;;;10.90;99.90;;;;;;5007681;28;20041;-86
2024/04/01 01:57:51;;;;;;;4.32;3.83;;;10.80;99.90;;;;;;5008610;28;20034;-86
2024/04/01 02:00:17;;;;;;;4.72;3.88;;;10.70;99.90;;;;;;5009120;28;20066;-86
2024/04/01 02:02:43;;;;;;;4.03;3.40;;;10.70;99.90;;;;;;5009916;28;20025;-86
2024/04/01 02:05:22;;;;;;;5.18;3.67;;;12.30;99.90;;;;;;5009806;28;20418;-86
2024/04/01 02:07:48;;;;;;;4.00;3.60;;;10.70;99.90;;;;;;5008616;28;20030;-86
2024/04/01 02:10:14;;;;;;;5.80;3.70;;;11.80;99.90;;;;;;5003532;28;20030;-87
2024/04/01 02:12:40;;;;;;;10.85;3.85;;;10.70;99.90;;;;;;4998084;28;20041;-86
2024/04/01 02:15:06;;;;;;;4.75;3.63;;;10.60;99.90;;;;;;5009225;28;20022;-87
2024/04/01 02:17:32;;;;;;;6.10;3.45;;;10.70;99.90;;;;;;5009880;28;20038;-87
2024/04/01 02:20:15;;;;;;;7.45;3.45;;;10.60;99.90;;;;;;5019924;28;20034;-86
2024/04/01 02:22:42;;;;;;;5.78;3.58;;;11.60;99.90;;;;;;5014620;28;20030;-87
2024/04/01 02:25:08;;;;;;;6.07;3.53;;;10.40;99.90;;;;;;5013137;28;20029;-86
2024/04/01 02:27:34;;;;;;;3.95;3.00;;;11.00;99.90;;;;;;5011134;28;20034;-86
2024/04/01 02:29:59;;;;;;;4.72;3.53;;;10.50;99.90;;;;;;5007643;28;20141;-86
2024/04/01 02:32:25;;;;;;;4.78;3.70;;;10.70;99.90;;;;;;5004283;28;20416;-86
2024/04/01 02:34:51;;;;;;;11.48;4.05;;;10.70;99.90;;;;;;5009301;28;20025;-86
2024/04/01 02:37:17;;;;;;;6.97;3.30;;;10.60;99.90;;;;;;5013108;28;20046;-86
2024/04/01 02:39:42;;;;;;;6.60;3.30;;;10.70;99.90;;;;;;5013315;28;20117;-86
2024/04/01 02:42:08;;;;;;;3.65;3.35;;;10.60;99.90;;;;;;5013651;28;20466;-86
2024/04/01 02:44:34;;;;;;;5.85;3.85;;;10.70;99.90;;;;;;5011057;28;20168;-86
2024/04/01 02:46:59;;;;;;;4.25;3.50;;;10.60;99.90;;;;;;5010549;28;20492;-87
2024/04/01 02:49:25;;;;;;;4.15;3.47;;;10.60;99.90;;;;;;5009468;28;20030;-86
2024/04/01 02:51:50;;;;;;;5.03;4.10;;;10.50;99.90;;;;;;5010373;28;20041;-86
2024/04/01 02:54:16;;;;;;;5.15;3.53;;;10.60;99.90;;;;;;5009875;28;20067;-86
2024/04/01 02:56:41;;;;;;;5.63;3.22;;;10.50;99.90;;;;;;5010533;28;20121;-86
2024/04/01 02:59:10;;;;;;;7.45;4.13;;;10.50;99.90;;;;;;5011482;28;20037;-84
2024/04/01 03:01:39;;;;;;;6.40;3.80;;;10.50;99.90;;;;;;5011855;28;20088;-87
2024/04/01 03:04:05;;;;;;;7.07;3.47;;;10.40;99.90;;;;;;5011414;28;20100;-86
2024/04/01 03:06:31;;;;;;;4.35;3.10;;;10.40;99.90;;;;;;5011424;28;20053;-86
2024/04/01 03:08:56;;;;;;;4.45;3.33;;;10.70;99.90;;;;;;5011587;28;20142;-86
2024/04/01 03:11:22;;;;;;;4.68;3.90;;;10.40;99.90;;;;;;5010385;28;20044;-86
2024/04/01 03:13:48;;;;;;;4.78;4.00;;;10.40;99.90;;;;;;5017216;28;20478;-85
2024/04/01 03:16:15;;;;;;;3.42;3.13;;;10.40;99.90;;;;;;5016646;28;20374;-87
2024/04/01 03:18:40;;;;;;;6.50;3.17;;;9.90;99.90;;;;;;5011561;28;20618;-85
2024/04/01 03:21:07;;;;;;;5.97;3.63;;;10.40;99.90;;;;;;5011138;28;20022;-86
2024/04/01 03:23:33;;;;;;;4.43;3.38;;;10.40;99.90;;;;;;5012537;28;20117;-85
2024/04/01 03:25:59;;;;;;;3.30;3.05;;;9.90;99.90;;;;;;5012940;28;20108;-87
2024/04/01 03:28:25;;;;;;;3.90;3.45;;;10.30;99.90;;;;;;5013881;28;20080;-86
2024/04/01 03:30:50;;;;;;;3.40;3.10;;;10.30;99.90;;;;;;5011048;28;20037;-86
2024/04/01 03:33:16;;;;;;;3.88;3.42;;;9.90;99.90;;;;;;5008479;28;20525;-86
2024/04/01 03:35:42;;;;;;;3.15;2.78;;;11.20;99.90;;;;;;5010080;28;20033;-85
2024/04/01 03:38:09;;;;;;;5.18;3.28;;;10.40;99.90;;;;;;4991933;28;20129;-86
2024/04/01 03:40:41;;;;;;;3.78;3.22;;;10.30;99.90;;;;;;4997936;28;20022;-85
2024/04/01 03:43:08;;;;;;;3.47;2.75;;;10.30;99.90;;;;;;5011500;28;20029;-86
2024/04/01 03:45:34;;;;;;;3.35;3.05;;;10.20;99.90;;;;;;5014079;28;20056;-86
2024/04/01 03:48:01;;;;;;;3.65;3.30;;;9.40;99.90;;;;;;5010661;28;20026;-86
2024/04/01 03:50:27;;;;;;;3.20;3.00;;;10.80;99.90;;;;;;5020848;28;20533;-85
2024/04/01 03:52:53;;;;;;;4.15;2.92;;;10.30;99.90;;;;;;5010754;28;20113;-86
2024/04/01 03:55:19;;;;;;;3.72;2.85;;;10.40;99.90;;;;;;5007549;28;20040;-86
2024/04/01 03:57:57;;;;;;;5.70;3.05;;;10.30;99.90;;;;;;5010500;28;20034;-86
2024/04/01 04:00:25;;;;;;;3.30;3.05;;;10.30;99.90;;;;;;5012806;28;20040;-87
2024/04/01 04:02:51;;;;;;;4.47;3.22;;;10.40;99.90;;;;;;5013945;28;20057;-86
2024/04/01 04:05:16;;;;;;;4.43;3.15;;;9.90;99.90;;;;;;5012493;28;20069;-86
2024/04/01 04:07:42;;;;;;;2.80;2.60;;;10.60;99.90;;;;;;5012041;28;20037;-86
2024/04/01 04:10:08;;;;;;;4.82;3.10;;;11.00;99.90;;;;;;5014111;28;20053;-86
2024/04/01 04:12:33;;;;;;;2.75;2.47;;;10.20;99.90;;;;;;5011251;28;20053;-87
2024/04/01 04:15:05;;;;;;;3.20;2.42;;;10.30;99.90;;;;;;5008884;28;20033;-86
2024/04/01 04:17:31;;;;;;;3.17;2.67;;;10.30;99.90;;;;;;5009331;28;20038;-86
2024/04/01 04:19:57;;;;;;;2.63;2.42;;;10.30;99.90;;;;;;5006236;28;20026;-86
2024/04/01 04:22:22;;;;;;;3.47;3.17;;;10.30;99.90;;;;;;5009135;28;20030;-85
2024/04/01 04:24:48;;;;;;;3.10;2.80;;;10.40;99.90;;;;;;5009061;28;20109;-86
2024/04/01 04:27:24;;;;;;;2.92;2.65;;;10.40;99.90;;;;;;5009752;28;20477;-85
2024/04/01 04:29:50;;;;;;;6.55;3.65;;;10.40;99.90;;;;;;5009426;28;20026;-86
2024/04/01 04:32:16;;;;;;;2.72;2.53;;;11.80;99.90;;;;;;5010258;28;20049;-86
2024/04/01 04:34:41;;;;;;;4.28;3.15;;;10.30;99.90;;;;;;5007847;28;20470;-87
2024/04/01 04:37:07;;;;;;;5.63;2.90;;;10.40;99.90;;;;;;5009359;28;20042;-85
2024/04/01 04:39:34;;;;;;;3.33;3.00;;;11.30;99.90;;;;;;5008762;28;20555;-86
2024/04/01 04:42:00;;;;;;;3.90;2.92;;;10.70;99.90;;;;;;5008167;28;20531;-85
2024/04/01 04:44:25;;;;;;;4.15;2.60;;;10.20;99.90;;;;;;5009745;28;20117;-87
2024/04/01 04:46:51;;;;;;;3.17;2.88;;;10.30;99.90;;;;;;5011646;28;20088;-86
2024/04/01 04:49:18;;;;;;;3.15;2.70;;;10.20;99.90;;;;;;5011123;28;20471;-85
2024/04/01 04:51:43;;;;;;;2.83;2.53;;;10.20;99.90;;;;;;5010010;28;20524;-86
2024/04/01 04:54:09;;;;;;;3.13;2.80;;;10.20;99.90;;;;;;5011815;28;20030;-86
2024/04/01 04:56:35;;;;;;;3.10;2.88;;;8.90;99.90;;;;;;5004356;28;20482;-86
2024/04/01 04:59:04;;;;;;;4.05;2.65;;;10.20;99.90;;;;;;5002304;28;20151;-85
2024/04/01 05:01:31;;;;;;;3.88;2.55;;;10.90;99.90;;;;;;5001620;28;20041;-85
2024/04/01 05:04:11;;;;;;;3.08;2.78;;;10.20;99.90;;;;;;4995311;28;20046;-85
2024/04/01 05:06:40;;;;;;;4.65;3.20;;;10.40;99.90;;;;;;5000305;28;20034;-84
2024/04/01 05:09:08;;;;;;;8.38;2.80;;;10.70;99.90;;;;;;4995559;28;20518;-85
2024/04/01 05:11:46;;;;;;;3.92;2.75;;;10.20;99.90;;;;;;4996819;28;20026;-86
2024/04/01 05:14:15;;;;;;;2.80;2.60;;;11.80;99.90;;;;;;4998393;28;20545;-86
2024/04/01 05:16:41;;;;;;;3.50;2.70;;;12.40;99.90;;;;;;5003211;28;20022;-85
2024/04/01 05:19:07;;;;;;;3.28;3.00;;;10.90;99.90;;;;;;5001720;28;20046;-85
2024/04/01 05:21:33;;;;;;;8.32;2.88;;;10.00;99.90;;;;;;5001713;28;20022;-85
2024/04/01 05:23:58;;;;;;;3.10;2.80;;;11.70;99.90;;;;;;4999095;28;20375;-84
2024/04/01 05:26:24;;;;;;;3.28;2.90;;;9.80;99.90;;;;;;5006519;28;20030;-85
2024/04/01 05:29:02;;;;;;;3.30;3.00;;;10.00;99.90;;;;;;4996551;28;20039;-84
2024/04/01 05:31:27;;;;;;;4.50;3.00;;;10.10;99.90;;;;;;4998968;28;20026;-84
2024/04/01 05:33:53;;;;;;;2.92;2.60;;;9.50;99.90;;;;;;4994493;28;20025;-85
2024/04/01 05:36:19;;;;;;;2.95;2.63;;;11.90;99.90;;;;;;4999395;28;20031;-84
2024/04/01 05:38:45;;;;;;;4.97;3.10;;;9.90;99.90;;;;;;4995902;28;20034;-85
2024/04/01 05:41:16;;;;;;;3.50;2.95;;;10.20;99.90;;;;;;4992465;28;20044;-84
2024/04/01 05:43:57;;;;;;;2.83;2.60;;;11.90;99.90;;;;;;4999166;28;20595;-83
2024/04/01 05:46:32;;;;;;;3.58;3.08;;;9.80;99.90;;;;;;4997596;28;20043;-85
2024/04/01 05:48:57;;;;;;;5.18;3.15;;;10.50;99.90;;;;;;4991003;28;20065;-84
2024/04/01 05:51:35;;;;;;;3.45;3.15;;;9.90;99.90;;;;;;5005597;28;20488;-85
2024/04/01 05:54:00;;;;;;;5.93;3.55;;;10.30;99.90;;;;;;4995781;28;20018;-85
2024/04/01 05:56:26;;;;;;;7.25;3.88;;;10.20;99.90;;;;;;5001167;28;20467;-85
2024/04/01 05:58:51;;;;;;;4.63;4.20;;;11.90;99.90;;;;;;4999216;28;20593;-85
2024/04/01 06:01:17;;;;;;;3.80;3.45;;;10.30;99.90;;;;;;5003964;28;20102;-84
2024/04/01 06:03:43;;;;;;;4.05;3.65;;;10.20;99.90;;;;;;4998046;28;20054;-84
2024/04/01 06:06:08;;;;;;;5.93;3.78;;;12.10;99.90;;;;;;4992852;28;20030;-84
2024/04/01 06:08:34;;;;;;;5.68;4.40;;;12.20;99.90;;;;;;4997833;28;20496;-83
2024/04/01 06:11:03;;;;;;;5.47;4.47;;;10.10;99.90;;;;;;5003696;28;20027;-85
2024/04/01 06:13:39;;;;;;;4.50;4.10;;;10.20;99.90;;;;;;5002506;28;20030;-85
2024/04/01 06:16:04;;;;;;;5.95;4.75;;;12.00;99.90;;;;;;4992217;28;20050;-85
2024/04/01 06:18:30;;;;;;;5.00;4.50;;;10.20;99.90;;;;;;5000554;28;20839;-85
2024/04/01 06:20:56;;;;;;;5.45;4.95;;;10.20;99.90;;;;;;4993790;28;20022;-84
2024/04/01 06:23:21;;;;;;;5.38;4.85;;;10.10;99.90;;;;;;4992839;28;20029;-85
2024/04/01 06:25:47;;;;;;;5.18;4.68;;;11.10;99.90;;;;;;5000935;28;20060;-84
2024/04/01 06:28:12;;;;;;;6.97;5.20;;;10.30;99.90;;;;;;5001159;28;20046;-86
2024/04/01 06:30:38;;;;;;;5.75;5.20;;;9.70;99.90;;;;;;5004769;28;20030;-84
2024/04/01 06:33:05;;;;;;;8.32;5.47;;;10.30;99.90;;;;;;4992810;28;20033;-84
2024/04/01 06:35:30;;;;;;;7.03;5.32;;;10.20;99.90;;;;;;5001821;28;20026;-84
2024/04/01 06:37:58;;;;;;;6.38;5.30;;;10.90;99.90;;;;;;5001162;28;20038;-84
2024/04/01 06:40:24;;;;;;;8.60;5.85;;;10.20;99.90;;;;;;5003915;28;20033;-85
2024/04/01 06:42:50;;;;;;;6.95;5.88;;;10.30;99.90;;;;;;4996535;28;20026;-86
2024/04/01 06:45:15;;;;;;;6.57;5.97;;;10.40;99.90;;;;;;4991833;28;20049;-84
2024/04/01 06:47:41;;;;;;;6.68;6.10;;;11.10;99.90;;;;;;5000712;28;20406;-84
2024/04/01 06:50:07;;;;;;;11.38;6.70;;;10.40;99.90;;;;;;5000218;28;20036;-83
2024/04/01 06:52:32;;;;;;;8.65;6.30;;;10.40;99.90;;;;;;4999553;28;20036;-86
2024/04/01 06:54:58;;;;;;;7.78;6.97;;;10.40;99.90;;;;;;4997924;28;20037;-85
2024/04/01 06:57:23;;;;;;;6.82;6.22;;;12.10;99.90;;;;;;5001266;28;20030;-84
2024/04/01 06:59:49;;;;;;;7.18;6.47;;;10.10;99.90;;;;;;5002284;28;20536;-86
2024/04/01 07:02:14;;;;;;;7.22;6.63;;;10.00;99.90;;;;;;4999156;28;20050;-89
2024/04/01 07:04:40;;;;;;;7.00;6.30;;;10.40;99.90;;;;;;4996171;28;20049;-87
2024/04/01 07:07:05;;;;;;;6.30;5.80;;;10.60;99.90;;;;;;5000882;28;20034;-86
2024/04/01 07:09:31;;;;;;;6.75;6.13;;;10.50;99.90;;;;;;5006398;28;20033;-85
2024/04/01 07:11:57;;;;;;;7.15;5.95;;;11.60;99.90;;;;;;5002464;28;20034;-87
2024/04/01 07:14:22;;;;;;;8.73;6.60;;;11.60;99.90;;;;;;5005252;28;20117;-86
2024/04/01 07:16:48;;;;;;;8.90;6.53;;;10.50;99.90;;;;;;4998915;28;20114;-85
2024/04/01 07:19:13;;;;;;;7.38;6.10;;;10.50;99.90;;;;;;4999974;28;20038;-84
2024/04/01 07:21:45;;;;;;;6.95;6.35;;;10.30;99.90;;;;;;5004808;28;20367;-85
2024/04/01 07:24:13;;;;;;;8.30;6.80;;;12.50;99.90;;;;;;4997049;28;20022;-84
2024/04/01 07:26:39;;;;;;;6.32;5.72;;;12.10;99.90;;;;;;5001497;28;20021;-85
2024/04/01 07:29:04;;;;;;;6.93;5.45;;;10.10;99.90;;;;;;5003220;28;20119;-85
2024/04/01 07:31:30;;;;;;;7.82;5.70;;;12.20;99.90;;;;;;5003771;28;20030;-85
2024/04/01 07:34:09;;;;;;;7.05;5.55;;;10.50;99.90;;;;;;4995958;28;20026;-85
2024/04/01 07:36:34;;;;;;;7.13;6.43;;;10.40;99.90;;;;;;4992314;28;20042;-83
2024/04/01 07:39:00;;;;;;;6.00;5.50;;;10.30;99.90;;;;;;4999727;28;20034;-84
2024/04/01 07:41:26;;;;;;;5.72;5.22;;;10.20;99.90;;;;;;5000029;28;20018;-85
2024/04/01 07:43:51;;;;;;;6.00;5.50;;;9.60;99.90;;;;;;5006705;28;20092;-85
2024/04/01 07:46:26;;;;;;;6.03;5.43;;;10.20;99.90;;;;;;4994936;28;20073;-85
2024/04/01 07:48:55;;;;;;;6.25;5.45;;;10.60;99.90;;;;;;5008143;28;20032;-85
2024/04/01 07:51:20;;;;;;;5.85;5.35;;;12.40;99.90;;;;;;5003610;28;20030;-88
2024/04/01 07:53:46;;;;;;;5.53;5.13;;;10.10;99.90;;;;;;5009994;28;20026;-87
2024/04/01 07:56:11;;;;;;;7.47;5.60;;;10.40;99.90;;;;;;5003630;28;20021;-87
2024/04/01 07:58:37;;;;;;;5.38;4.88;;;10.50;99.90;;;;;;5004963;28;20108;-87
2024/04/01 08:01:06;;;;;;;5.43;5.00;;;11.40;99.90;;;;;;5001597;28;20018;-88
2024/04/01 08:03:47;;;;;;;8.00;4.93;;;10.60;99.90;;;;;;5010544;28;20030;-88
2024/04/01 08:06:12;;;;;;;5.60;5.10;;;11.30;99.90;;;;;;5002584;28;20041;-88
2024/04/01 08:08:38;;;;;;;5.57;5.05;;;12.50;99.90;;;;;;5010409;28;20038;-88
2024/04/01 08:11:05;;;;;;;5.88;5.32;;;10.50;99.90;;;;;;5006283;28;20032;-89
2024/04/01 08:13:30;;;;;;;5.68;5.03;;;10.50;99.90;;;;;;5005959;28;20057;-87
2024/04/01 08:16:04;;;;;;;5.95;5.40;;;10.70;99.90;;;;;;4989218;28;20517;-89
2024/04/01 08:18:29;;;;;;;8.20;5.82;;;10.70;99.90;;;;;;5005537;28;20533;-89
2024/04/01 08:20:57;;;;;;;5.20;4.80;;;10.70;99.90;;;;;;5008161;28;20045;-90
2024/04/01 08:23:23;;;;;;;6.05;5.45;;;10.70;99.90;;;;;;5004064;28;20030;-91
2024/04/01 08:25:48;;;;;;;6.18;4.53;;;10.80;99.90;;;;;;5013213;28;20031;-88
2024/04/01 08:28:14;;;;;;;4.78;4.25;;;12.20;99.90;;;;;;5009643;28;20022;-87
2024/04/01 08:30:40;;;;;;;5.45;4.47;;;10.70;99.90;;;;;;5007569;28;20482;-89
2024/04/01 08:33:29;;;;;;;4.65;4.22;;;10.80;99.90;;;;;;5003392;28;20037;-92
2024/04/01 08:35:55;;;;;;;7.43;4.68;;;11.00;99.90;;;;;;5001267;28;20034;-92
2024/04/01 08:38:20;;;;;;;5.10;3.58;;;12.60;99.90;;;;;;5004209;28;20052;-93
2024/04/01 08:43:44;;;;;;;4.10;3.70;;;12.20;99.90;;;;;;5003130;23;20390;-91
2024/04/01 08:46:11;;;;;;;7.50;3.55;;;11.00;99.90;;;;;;4987488;28;20355;-90
2024/04/01 08:48:41;;;;;;;3.80;3.47;;;10.90;99.90;;;;;;4992311;28;20037;-90
2024/04/01 08:51:10;;;;;;;5.68;3.83;;;11.20;99.90;;;;;;5003030;28;20014;-91
2024/04/01 08:53:50;;;;;;;5.70;4.13;;;10.90;99.90;;;;;;5007378;28;20031;-91
2024/04/01 08:56:18;;;;;;;4.05;3.22;;;11.00;99.90;;;;;;4977871;28;20031;-89
2024/04/01 08:58:45;;;;;;;5.97;3.63;;;11.30;99.90;;;;;;4976667;28;20034;-91
2024/04/01 09:01:11;;;;;;;4.30;3.80;;;11.80;99.90;;;;;;4990370;28;20502;-90
2024/04/01 09:03:39;;;;;;;4.68;3.25;;;12.70;99.90;;;;;;4984822;28;20045;-89
2024/04/01 09:06:08;;;;;;;4.57;3.50;;;12.00;99.90;;;;;;4983385;28;20097;-90
2024/04/01 09:08:34;;;;;;;9.85;3.88;;;12.90;99.90;;;;;;4982365;28;20226;-86
2024/04/01 09:10:59;;;;;;;7.35;3.60;;;12.40;99.90;;;;;;4975102;28;20037;-88
2024/04/01 09:13:25;;;;;;;4.35;3.55;;;11.00;99.90;;;;;;4959681;28;20029;-89
2024/04/01 09:15:51;;;;;;;7.63;4.07;;;11.10;99.90;;;;;;4974806;28;20538;-89
2024/04/01 09:18:31;;;;;;;11.93;4.80;;;11.10;99.90;;;;;;4971049;28;20051;-88
2024/04/01 09:20:57;;;;;;;4.68;4.22;;;11.20;99.90;;;;;;4968424;28;20062;-88
2024/04/01 09:23:23;;;;;;;9.52;4.40;;;10.90;99.90;;;;;;4973574;28;20031;-85
2024/04/01 09:25:51;;;;;;;6.32;3.88;;;11.60;99.90;;;;;;4972921;28;20025;-86
2024/04/01 09:28:28;;;;;;;8.25;4.15;;;11.20;99.90;;;;;;4975554;28;20030;-88
2024/04/01 09:30:56;;;;;;;5.38;3.80;;;10.50;99.90;;;;;;4988573;28;20019;-91
2024/04/01 09:33:23;;;;;;;4.88;4.25;;;11.20;99.90;;;;;;4965020;28;20067;-92
2024/04/01 09:35:59;;;;;;;4.40;3.53;;;11.00;99.90;;;;;;4979145;28;20023;-90
2024/04/01 09:38:26;;;;;;;6.82;3.75;;;12.90;99.90;;;;;;4979421;28;20419;-93
2024/04/01 09:40:52;;;;;;;9.27;4.00;;;11.00;99.90;;;;;;4977086;28;20027;-92
2024/04/01 09:43:36;;;;;;;5.25;3.80;;;12.00;99.90;;;;;;4978998;28;20139;-92
2024/04/01 09:46:02;;;;;;;10.63;3.60;;;12.40;99.90;;;;;;4979062;28;20047;-93
2024/04/01 09:48:29;;;;;;;8.93;3.97;;;11.10;99.90;;;;;;4979866;28;20058;-91
2024/04/01 09:50:57;;;;;;;9.02;4.00;;;11.10;99.90;;;;;;4979433;28;20430;-90
2024/04/01 09:53:35;;;;;;;7.20;3.92;;;12.90;99.90;;;;;;4976510;28;20031;-91
2024/04/01 09:56:01;;;;;;;8.20;3.63;;;11.20;99.90;;;;;;4960322;29;20023;-91
2024/04/01 09:58:48;;;;;;;11.55;3.70;;;12.70;99.90;;;;;;4976926;28;20035;-92
2024/04/01 10:01:53;;;;;;;10.70;4.43;;;11.00;99.90;;;;;;4978605;28;20035;-92
2024/04/01 10:04:55;;;;;;;8.23;3.25;;;10.70;99.90;;;;;;4987730;28;20109;-92
2024/04/01 10:08:03;;;;;;;7.88;2.95;;;10.80;99.90;;;;;;4980007;28;20026;-92
2024/04/01 10:10:37;;;;;;;8.77;4.35;;;10.70;99.90;;;;;;4977815;28;20069;-91
2024/04/01 10:13:49;;;;;;;7.45;3.15;;;10.80;99.90;;;;;;4978422;28;20041;-91
2024/04/01 10:16:58;;;;;;;14.18;3.58;;;10.80;99.90;;;;;;4961459;28;20031;-91
2024/04/01 10:20:09;;;;;;;8.38;3.22;;;10.70;99.90;;;;;;4959050;29;20023;-91
2024/04/01 10:23:26;;;;;;;9.82;3.40;;;10.80;99.90;;;;;;4944252;28;20042;-91
2024/04/01 10:26:12;;;;;;;9.82;3.03;;;10.80;99.90;;;;;;4948472;28;20034;-91
2024/04/01 10:28:57;;;;;;;11.38;3.30;;;10.80;99.90;;;;;;4988799;28;20019;-91
2024/04/01 10:31:52;;;;;;;12.90;3.20;;;10.90;99.90;;;;;;4984942;28;20043;-92
2024/04/01 10:34:43;;;;;;;13.75;2.75;;;10.80;99.90;;;;;;4979140;28;20033;-91
2024/04/01 10:38:00;;;;;;;8.13;3.00;;;10.80;99.90;;;;;;4961418;28;20035;-91
2024/04/01 10:40:33;;;;;;;8.38;3.13;;;10.80;99.90;;;;;;4957954;28;20467;-91
2024/04/01 10:43:43;;;;;;;7.18;3.17;;;9.30;99.90;;;;;;4971802;28;20082;-92
2024/04/01 10:47:08;;;;;;;10.30;3.30;;;10.90;99.90;;;;;;4899197;29;20111;-91
2024/04/01 10:49:46;;;;;;;15.13;3.30;;;12.20;99.90;;;;;;4862289;29;20034;-90
2024/04/01 10:52:31;;;;;;;12.00;3.38;;;11.30;99.90;;;;;;4917994;29;20036;-91
2024/04/01 10:55:02;;;;;;;5.88;3.00;;;10.90;99.90;;;;;;4917866;29;20040;-90
2024/04/01 10:57:57;;;;;;;6.85;2.95;;;11.00;99.90;;;;;;4939912;28;20043;-91
2024/04/01 11:00:54;;;;;;;9.18;3.53;;;10.90;99.90;;;;;;4972965;28;20034;-90
2024/04/01 11:03:45;;;;;;;8.20;3.92;;;10.90;99.90;;;;;;4976876;28;20062;-92
2024/04/01 11:06:26;;;;;;;14.18;3.90;;;11.00;99.90;;;;;;4976883;28;20027;-91
2024/04/01 11:09:31;;;;;;;8.73;5.63;;;11.00;99.90;;;;;;4977259;28;20031;-91
2024/04/01 11:12:26;;;;;;;8.02;3.42;;;10.00;99.90;;;;;;4936937;28;20073;-92
2024/04/01 11:15:17;;;;;;;8.18;4.05;;;11.20;99.90;;;;;;4977351;28;20043;-93
2024/04/01 11:17:51;;;;;;;8.38;3.88;;;11.20;99.90;;;;;;4990987;28;20066;-91
2024/04/01 11:20:26;;;;;;;8.90;3.58;;;11.00;99.90;;;;;;4984427;28;20026;-92
2024/04/01 11:23:03;;;;;;;13.13;4.95;;;11.80;99.90;;;;;;4978661;28;20042;-91
2024/04/01 11:25:49;;;;;;;9.00;4.28;;;11.20;99.90;;;;;;4975536;28;20018;-92
2024/04/01 11:28:27;;;;;;;9.57;4.40;;;11.20;99.90;;;;;;4976874;28;20031;-90
2024/04/01 11:31:12;;;;;;;6.65;3.80;;;11.30;99.90;;;;;;4976718;28;20030;-91
2024/04/01 11:34:00;;;;;;;10.05;4.00;;;11.40;99.90;;;;;;4977012;28;20027;-91
2024/04/01 11:36:40;;;;;;;11.38;4.78;;;13.00;99.90;;;;;;4977258;28;20102;-91
2024/04/01 11:39:09;;;;;;;6.47;3.60;;;10.90;99.90;;;;;;4977293;28;20030;-92
2024/04/01 11:41:41;;;;;;;12.35;4.32;;;13.00;99.90;;;;;;4966588;28;20378;-92
2024/04/01 11:44:28;;;;;;;7.43;3.80;;;10.90;99.90;;;;;;4953988;28;20451;-92
2024/04/01 11:46:56;;;;;;;7.28;3.88;;;13.10;99.90;;;;;;4963059;28;20042;-93
2024/04/01 11:50:05;;;;;;;7.10;3.53;;;12.60;99.90;;;;;;4992570;28;20046;-91
2024/04/01 11:52:31;;;;;;;5.35;2.20;;;11.50;99.90;;;;;;4977589;28;20034;-90
2024/04/01 11:55:10;;;;;;;5.00;3.33;;;11.60;99.90;;;;;;4976206;28;20023;-92
2024/04/01 11:57:48;;;;;;;7.35;2.35;;;11.50;99.90;;;;;;4976152;28;20382;-92
2024/04/01 12:00:14;;;;;;;5.47;2.58;;;11.50;99.90;;;;;;4975940;28;20038;-92
2024/04/01 12:02:39;;;;;;;9.75;3.10;;;11.40;99.90;;;;;;4976117;28;20034;-91
2024/04/01 12:05:05;;;;;;;13.02;2.97;;;12.00;99.90;;;;;;4976604;28;20019;-90
2024/04/01 12:07:35;;;;;;;8.73;2.97;;;11.30;99.90;;;;;;4975756;28;20031;-92
2024/04/01 12:10:04;;;;;;;8.55;3.17;;;11.30;99.90;;;;;;4972368;28;20039;-92
2024/04/01 12:12:32;;;;;;;5.80;2.72;;;11.40;99.90;;;;;;4982959;28;20039;-92
2024/04/01 12:15:01;;;;;;;5.78;2.33;;;12.80;99.90;;;;;;4979956;28;20023;-90
2024/04/01 12:17:27;;;;;;;5.18;3.47;;;11.40;99.90;;;;;;4989311;28;20115;-91
2024/04/01 12:20:11;;;;;;;9.35;2.83;;;11.50;99.90;;;;;;4987920;28;20097;-91
2024/04/01 12:22:39;;;;;;;6.82;2.83;;;11.40;99.90;;;;;;4990126;28;20459;-91
2024/04/01 12:25:07;;;;;;;12.05;3.22;;;13.40;99.90;;;;;;4979204;28;20035;-90
2024/04/01 12:27:33;;;;;;;10.85;3.13;;;11.70;99.90;;;;;;4976931;28;20050;-91
2024/04/01 12:30:15;;;;;;;5.60;2.53;;;11.90;99.90;;;;;;4978842;28;20023;-90
2024/04/01 12:32:42;;;;;;;5.07;2.47;;;13.70;99.90;;;;;;4995385;28;20034;-91
2024/04/01 12:35:12;;;;;;;6.45;2.13;;;11.80;99.90;;;;;;4986282;28;20027;-91
2024/04/01 12:37:41;;;;;;;4.53;2.35;;;11.80;99.90;;;;;;4979707;28;20038;-90
2024/04/01 12:40:23;;;;;;;3.72;2.30;;;11.90;99.90;;;;;;4974667;28;20138;-91
2024/04/01 12:42:50;;;;;;;7.07;2.42;;;12.60;99.90;;;;;;4975685;28;20046;-92
2024/04/01 12:45:16;;;;;;;4.32;2.60;;;13.70;99.90;;;;;;4973690;28;20463;-91
2024/04/01 12:47:41;;;;;;;6.35;2.42;;;11.10;99.90;;;;;;4976086;28;20034;-92
2024/04/01 12:50:10;;;;;;;8.43;2.75;;;11.80;99.90;;;;;;4973608;28;20049;-92
2024/04/01 12:53:04;;;;;;;8.48;2.88;;;12.50;99.90;;;;;;4975880;28;20522;-92
2024/04/01 12:55:33;;;;;;;4.93;2.40;;;13.40;99.90;;;;;;4975557;28;20343;-90
2024/04/01 12:58:09;;;;;;;6.95;2.33;;;11.60;99.90;;;;;;4976179;28;20043;-92
2024/04/01 13:00:38;;;;;;;8.35;2.85;;;11.90;99.90;;;;;;4976173;28;20026;-89
2024/04/01 13:03:25;;;;;;;4.00;2.33;;;11.90;99.90;;;;;;4963574;28;20030;-91
2024/04/01 13:06:14;;;;;;;7.75;2.60;;;12.00;99.90;;;;;;4972335;28;20121;-91